Time;durP1;ratioP1;P1;durP2;ratioP2;P2;SDS_P1;SDS_P2;PMS_P1;PMS_P2;Temp;Humidity;BMP_temperature;BMP_pressure;BME280_temperature;BME280_humidity;BME280_pressure;Samples;Min_cycle;Max_cycle;Signal;HPM_P1;HPM_P2
2021/03/27 00:00:20;;;;;;;27.02;18.13;;;;;;;15.33;46.04;102040.09;5010574;28;20053;-60
2021/03/27 00:02:54;;;;;;;30.33;19.33;;;;;;;15.30;46.19;102038.47;5013636;28;20116;-60
2021/03/27 00:05:40;;;;;;;29.15;19.33;;;;;;;15.29;46.32;102030.63;5012785;28;20104;-59
2021/03/27 00:08:21;;;;;;;27.27;19.00;;;;;;;15.27;46.32;102028.03;4994102;28;20050;-60
2021/03/27 00:11:08;;;;;;;27.92;18.77;;;;;;;15.26;46.42;102028.13;4993936;28;20046;-59
2021/03/27 00:14:05;;;;;;;33.03;19.52;;;;;;;15.25;46.51;102029.06;4994004;28;20046;-60
2021/03/27 00:16:52;;;;;;;27.00;18.25;;;;;;;15.23;46.41;102028.31;4992090;28;20050;-60
2021/03/27 00:19:42;;;;;;;27.70;19.33;;;;;;;15.20;46.60;102032.00;4993816;28;20466;-60
2021/03/27 00:22:34;;;;;;;28.35;19.42;;;;;;;15.19;46.40;102027.63;4993999;28;20054;-60
2021/03/27 00:25:17;;;;;;;31.92;19.73;;;;;;;15.18;46.26;102024.16;4993860;28;20070;-59
2021/03/27 00:28:02;;;;;;;30.45;20.48;;;;;;;15.17;46.27;102026.84;4993595;28;20105;-59
2021/03/27 00:30:41;;;;;;;32.83;20.85;;;;;;;15.14;46.03;102025.22;4993566;28;20058;-60
2021/03/27 00:33:09;;;;;;;36.33;20.83;;;;;;;15.14;45.90;102017.28;4993608;28;20097;-60
2021/03/27 00:35:41;;;;;;;37.03;23.05;;;;;;;15.12;45.52;102027.13;5001177;28;20431;-59
2021/03/27 00:38:14;;;;;;;39.35;24.52;;;;;;;15.11;45.21;102016.59;5013250;28;20941;-60
2021/03/27 00:40:45;;;;;;;43.85;24.98;;;;;;;15.10;44.70;102017.56;5012903;28;20062;-60
2021/03/27 00:43:14;;;;;;;44.38;25.02;;;;;;;15.10;44.49;102022.88;5013110;28;20050;-59
2021/03/27 00:45:45;;;;;;;46.28;26.35;;;;;;;15.09;44.45;102016.69;5013011;28;20127;-59
2021/03/27 00:48:26;;;;;;;47.40;26.65;;;;;;;15.08;44.26;102014.16;5012093;28;20096;-59
2021/03/27 00:50:57;;;;;;;40.35;24.50;;;;;;;15.07;44.19;102017.72;5013042;28;20516;-60
2021/03/27 00:53:31;;;;;;;36.05;24.08;;;;;;;15.05;44.30;102015.16;5012959;28;20057;-59
2021/03/27 00:56:01;;;;;;;35.75;23.60;;;;;;;15.02;44.50;102013.56;5012902;28;20049;-60
2021/03/27 00:58:34;;;;;;;36.63;24.35;;;;;;;14.99;44.51;102007.56;5012815;28;20049;-60
2021/03/27 01:01:07;;;;;;;42.70;24.20;;;;;;;14.95;44.59;102013.97;5012491;28;20050;-59
2021/03/27 01:03:44;;;;;;;38.17;24.25;;;;;;;14.93;44.76;102007.91;5012682;28;20049;-60
2021/03/27 01:06:15;;;;;;;38.35;25.15;;;;;;;14.91;44.85;102012.44;5012282;28;20064;-59
2021/03/27 01:08:45;;;;;;;39.05;24.60;;;;;;;14.89;44.89;102009.88;5012628;28;20072;-59
2021/03/27 01:11:19;;;;;;;42.42;25.17;;;;;;;14.86;44.97;102013.53;5012720;28;20045;-59
2021/03/27 01:13:55;;;;;;;40.20;25.42;;;;;;;14.83;45.17;102020.75;5012438;28;20054;-61
2021/03/27 01:16:30;;;;;;;;;;;;;;;14.80;45.28;102011.22;5013033;28;20053;-59
2021/03/27 01:19:06;;;;;;;38.95;24.05;;;;;;;14.82;45.37;102006.72;5012560;28;19928;-59
2021/03/27 01:21:38;;;;;;;35.90;24.27;;;;;;;14.81;45.49;102004.16;5012610;28;20042;-60
2021/03/27 01:24:10;;;;;;;39.70;24.75;;;;;;;14.78;45.58;101991.97;5011904;28;20059;-59
2021/03/27 01:26:49;;;;;;;41.15;26.23;;;;;;;14.78;45.80;102004.31;5013954;28;20104;-60
2021/03/27 01:29:22;;;;;;;38.05;24.95;;;;;;;14.76;45.91;102006.19;5016590;28;20046;-59
2021/03/27 01:32:27;;;;;;;42.60;26.20;;;;;;;14.74;46.03;101990.44;5016657;28;20050;-60
2021/03/27 01:35:04;;;;;;;40.90;27.10;;;;;;;14.71;46.03;101985.28;5016294;28;20052;-60
2021/03/27 01:37:51;;;;;;;39.10;24.17;;;;;;;14.69;46.09;101995.97;5016298;28;20104;-63
2021/03/27 01:40:59;;;;;;;39.70;24.80;;;;;;;14.67;46.31;101979.31;5014768;28;20053;-59
2021/03/27 01:43:37;;;;;;;40.97;24.98;;;;;;;14.65;46.35;101994.44;5016157;28;20057;-60
2021/03/27 01:46:50;;;;;;;43.40;25.02;;;;;;;14.63;46.80;101988.31;5016262;28;20410;-59
2021/03/27 01:49:35;;;;;;;36.47;23.42;;;;;;;14.61;46.74;101991.97;5016462;28;20052;-59
2021/03/27 01:52:04;;;;;;;34.22;24.25;;;;;;;14.58;46.86;101985.09;5016306;28;20064;-65
2021/03/27 01:54:56;;;;;;;41.45;24.48;;;;;;;14.56;46.94;101986.94;5016067;28;20487;-59
2021/03/27 01:57:30;;;;;;;38.85;24.08;;;;;;;14.54;47.00;101980.91;5014800;28;20049;-59
2021/03/27 02:00:14;;;;;;;37.00;24.75;;;;;;;14.52;46.97;101988.03;5016110;28;20050;-59
2021/03/27 02:03:05;;;;;;;38.03;23.70;;;;;;;14.50;46.99;101987.25;5015912;28;20050;-62
2021/03/27 02:05:42;;;;;;;38.97;24.25;;;;;;;14.50;47.12;101987.25;5015980;28;20473;-59
2021/03/27 02:08:29;;;;;;;36.25;24.05;;;;;;;14.49;47.11;101990.88;5015932;28;20054;-60
2021/03/27 02:11:17;;;;;;;41.53;22.92;;;;;;;14.47;47.13;101987.44;5015970;28;20112;-60
2021/03/27 02:14:02;;;;;;;35.90;23.38;;;;;;;14.48;47.06;101987.34;5015714;28;20041;-60
2021/03/27 02:16:38;;;;;;;36.53;23.75;;;;;;;14.49;47.10;101986.41;5015841;28;20096;-59
2021/03/27 02:19:23;;;;;;;38.67;23.83;;;;;;;14.50;47.08;101992.53;5015572;28;20053;-59
2021/03/27 02:21:49;;;;;;;35.00;23.77;;;;;;;14.50;46.93;101992.53;5015647;28;20557;-59
2021/03/27 02:24:56;;;;;;;38.67;25.33;;;;;;;14.48;47.04;101992.63;5015569;28;20046;-60
2021/03/27 02:27:27;;;;;;;;;;;;;;;14.47;46.86;101995.38;4985843;28;20062;-59
2021/03/27 02:30:15;;;;;;;39.45;24.65;;;;;;;14.47;46.67;101993.56;5015072;28;19925;-59
2021/03/27 02:32:59;;;;;;;36.97;24.48;;;;;;;14.45;46.64;101984.00;5015404;28;20041;-59
2021/03/27 02:35:42;;;;;;;43.35;24.83;;;;;;;14.42;46.45;101984.19;5015282;28;20045;-59
2021/03/27 02:38:26;;;;;;;42.15;24.63;;;;;;;14.40;46.54;101996.63;5014155;28;20060;-60
2021/03/27 02:41:07;;;;;;;35.67;24.27;;;;;;;14.38;46.71;101988.78;5015137;28;20054;-60
2021/03/27 02:43:49;;;;;;;37.42;23.90;;;;;;;14.35;47.07;101984.50;5015253;28;20104;-59
2021/03/27 02:46:23;;;;;;;37.20;23.67;;;;;;;14.34;47.38;101981.97;5014619;28;20061;-59
2021/03/27 02:49:10;;;;;;;38.47;25.50;;;;;;;14.33;47.87;101990.81;5015084;28;20053;-59
2021/03/27 02:51:51;;;;;;;38.13;24.77;;;;;;;14.29;48.35;101984.84;5015039;28;20046;-60
2021/03/27 02:54:54;;;;;;;39.38;25.15;;;;;;;14.30;49.00;101990.97;5015027;28;20054;-60
2021/03/27 02:57:41;;;;;;;36.45;25.35;;;;;;;14.27;49.21;101992.00;5014952;28;20097;-59
2021/03/27 03:00:23;;;;;;;38.45;25.88;;;;;;;14.21;49.72;102006.34;5014753;28;20053;-59
2021/03/27 03:03:00;;;;;;;38.40;24.98;;;;;;;14.14;50.21;102001.47;5011296;28;20053;-61
2021/03/27 03:05:52;;;;;;;37.13;24.67;;;;;;;14.10;50.72;102003.41;4995142;28;20042;-59
2021/03/27 03:08:36;;;;;;;35.90;24.67;;;;;;;14.04;51.02;102011.63;4995261;28;20100;-60
2021/03/27 03:11:12;;;;;;;39.78;24.00;;;;;;;13.99;51.42;102000.47;4995181;28;20130;-60
2021/03/27 03:13:59;;;;;;;36.33;25.20;;;;;;;13.95;51.72;102002.41;4994997;28;20065;-60
2021/03/27 03:16:28;;;;;;;;;;;;;;;13.94;51.94;102003.34;4995591;28;20057;-60
2021/03/27 03:19:14;;;;;;;37.88;24.52;;;;;;;13.95;51.84;102009.47;4995188;28;19929;-59
2021/03/27 03:21:50;;;;;;;40.00;25.25;;;;;;;13.94;51.87;102011.28;5007574;28;20050;-60
2021/03/27 03:24:26;;;;;;;39.33;26.27;;;;;;;13.95;51.95;102020.88;5014446;28;20045;-61
2021/03/27 03:27:06;;;;;;;;;;;;;;;13.91;52.13;102013.22;5014833;28;20046;-59
2021/03/27 03:29:53;;;;;;;36.80;24.23;;;;;;;13.88;52.21;102022.97;5014366;28;19971;-59
2021/03/27 03:32:24;;;;;;;37.05;23.90;;;;;;;13.83;52.46;102017.06;5014393;28;20050;-59
2021/03/27 03:35:07;;;;;;;35.45;24.77;;;;;;;13.82;52.84;102030.34;5014359;28;20129;-60
2021/03/27 03:37:52;;;;;;;35.17;23.50;;;;;;;13.81;53.00;102026.00;5014304;28;20049;-59
2021/03/27 03:40:35;;;;;;;37.30;23.90;;;;;;;13.80;53.25;102021.66;5014118;28;20050;-61
2021/03/27 03:43:01;;;;;;;36.67;24.83;;;;;;;13.78;53.53;102026.16;5014209;28;20506;-59
2021/03/27 03:45:48;;;;;;;32.88;22.45;;;;;;;13.75;53.87;102019.25;5013956;28;20497;-59
2021/03/27 03:48:45;;;;;;;39.53;24.33;;;;;;;13.69;54.12;102023.03;5014078;28;20097;-59
2021/03/27 03:51:33;;;;;;;33.35;22.63;;;;;;;13.66;54.43;102020.56;5013827;28;20495;-59
2021/03/27 03:54:08;;;;;;;33.95;23.48;;;;;;;13.67;54.63;102018.78;5005968;28;20046;-60
2021/03/27 03:56:50;;;;;;;37.37;24.07;;;;;;;13.66;54.74;102017.94;4994321;28;20454;-59
2021/03/27 03:59:16;;;;;;;37.08;24.45;;;;;;;13.67;54.94;102029.31;4994056;28;20541;-59
2021/03/27 04:01:58;;;;;;;35.85;24.58;;;;;;;13.68;55.28;102025.75;4993210;28;20054;-59
2021/03/27 04:04:32;;;;;;;38.97;23.05;;;;;;;13.68;55.22;102026.59;5009310;28;20257;-60
2021/03/27 04:07:11;;;;;;;39.53;24.05;;;;;;;13.68;55.59;102020.47;5010491;28;20050;-60
2021/03/27 04:09:53;;;;;;;38.00;23.90;;;;;;;13.69;55.96;102038.03;5010241;28;20548;-60
2021/03/27 04:12:25;;;;;;;39.38;23.77;;;;;;;13.68;56.28;102031.88;5010331;28;20049;-60
2021/03/27 04:14:57;;;;;;;40.83;25.13;;;;;;;13.65;56.63;102034.69;5010200;28;20486;-60
2021/03/27 04:17:39;;;;;;;35.00;24.45;;;;;;;13.63;56.95;102036.53;5009903;28;20116;-60
2021/03/27 04:20:46;;;;;;;37.70;24.38;;;;;;;13.60;57.18;102030.53;5009785;28;20050;-60
2021/03/27 04:24:01;;;;;;;34.38;23.85;;;;;;;13.58;57.52;102035.91;5010306;28;20057;-60
2021/03/27 04:26:27;;;;;;;36.58;24.15;;;;;;;13.60;57.78;102044.59;5000842;28;20129;-59
2021/03/27 04:29:18;;;;;;;33.88;23.50;;;;;;;13.63;57.72;102048.88;4990545;28;20072;-59
2021/03/27 04:32:23;;;;;;;36.60;24.88;;;;;;;13.64;57.92;102047.94;4990881;28;20050;-60
2021/03/27 04:35:14;;;;;;;37.35;23.42;;;;;;;13.64;58.17;102048.78;4990529;28;20050;-60
2021/03/27 04:37:47;;;;;;;36.60;25.10;;;;;;;13.64;58.23;102059.34;4990465;28;20047;-61
2021/03/27 04:40:38;;;;;;;36.30;25.63;;;;;;;13.65;58.30;102068.09;4990175;28;20061;-60
2021/03/27 04:43:43;;;;;;;36.80;24.98;;;;;;;13.64;58.49;102061.13;4990014;28;20415;-60
2021/03/27 04:46:25;;;;;;;38.78;25.75;;;;;;;13.65;58.72;102062.81;4989854;28;20057;-60
2021/03/27 04:48:57;;;;;;;38.45;25.52;;;;;;;13.66;58.79;102069.81;4989952;28;20483;-61
2021/03/27 04:51:30;;;;;;;37.55;25.40;;;;;;;13.65;59.00;102062.81;4989937;28;20077;-59
2021/03/27 04:54:10;;;;;;;36.90;25.50;;;;;;;13.64;59.01;102063.78;4990133;28;20050;-60
2021/03/27 04:57:01;;;;;;;39.13;25.83;;;;;;;13.63;59.03;102073.44;5005016;28;20045;-60
2021/03/27 04:59:58;;;;;;;39.35;26.27;;;;;;;13.63;59.17;102069.97;5009377;28;20399;-60
2021/03/27 05:02:51;;;;;;;40.92;25.20;;;;;;;13.63;59.11;102073.44;5008410;28;20092;-60
2021/03/27 05:05:28;;;;;;;39.90;26.13;;;;;;;13.63;59.30;102075.25;5009372;28;20041;-61
2021/03/27 05:07:58;;;;;;;37.55;25.70;;;;;;;13.62;59.31;102076.16;5009548;28;20486;-60
2021/03/27 05:10:51;;;;;;;37.47;25.30;;;;;;;13.60;59.38;102070.09;5009296;28;20056;-60
2021/03/27 05:13:38;;;;;;;36.17;25.42;;;;;;;13.59;59.64;102078.97;5002470;28;20099;-60
2021/03/27 05:16:13;;;;;;;39.88;26.80;;;;;;;13.60;59.52;102083.28;5009530;28;20971;-61
2021/03/27 05:18:56;;;;;;;36.92;26.25;;;;;;;13.59;59.61;102084.25;5007962;28;20104;-60
2021/03/27 05:21:31;;;;;;;40.67;26.63;;;;;;;13.59;59.49;102089.53;5009330;28;20410;-59
2021/03/27 05:24:11;;;;;;;40.20;27.15;;;;;;;13.59;59.52;102089.53;5009489;28;20061;-60
2021/03/27 05:26:52;;;;;;;38.45;27.00;;;;;;;13.58;59.48;102088.66;5009408;28;20061;-61
2021/03/27 05:29:37;;;;;;;36.65;25.90;;;;;;;13.58;59.52;102087.81;5008762;28;20053;-64
2021/03/27 05:32:18;;;;;;;50.65;26.90;;;;;;;13.57;59.49;102091.38;5009148;28;20187;-59
2021/03/27 05:35:00;;;;;;;39.40;25.70;;;;;;;13.56;59.39;102095.78;5009346;28;20145;-60
2021/03/27 05:37:48;;;;;;;38.67;25.05;;;;;;;13.55;59.44;102094.91;5008936;28;20050;-59
2021/03/27 05:40:34;;;;;;;38.30;25.05;;;;;;;13.55;59.52;102088.81;5009076;28;20046;-59
2021/03/27 05:43:00;;;;;;;;;;;;;;;13.56;59.29;102095.78;5009426;28;20458;-59
2021/03/27 05:46:04;;;;;;;37.25;25.60;;;;;;;13.59;59.08;102097.44;5009149;28;19928;-60
2021/03/27 05:49:10;;;;;;;39.00;26.25;;;;;;;13.59;58.95;102097.44;5008839;28;20046;-59
2021/03/27 05:52:22;;;;;;;36.92;25.30;;;;;;;13.60;59.00;102101.75;5009105;28;20049;-61
2021/03/27 05:55:21;;;;;;;36.78;24.80;;;;;;;13.59;59.08;102095.63;5008799;28;20053;-59
2021/03/27 05:57:55;;;;;;;34.60;24.25;;;;;;;13.59;59.19;102089.53;5008758;28;20545;-59
2021/03/27 06:00:31;;;;;;;33.47;25.05;;;;;;;13.59;59.09;102089.53;5008412;28;20058;-60
2021/03/27 06:03:18;;;;;;;37.30;25.27;;;;;;;13.59;59.23;102090.38;5008891;28;20073;-59
2021/03/27 06:06:31;;;;;;;38.28;25.02;;;;;;;13.61;59.06;102090.28;5008741;28;20046;-60
2021/03/27 06:09:06;;;;;;;37.00;24.95;;;;;;;13.63;59.08;102093.72;5008833;28;20049;-60
2021/03/27 06:11:38;;;;;;;44.90;25.65;;;;;;;13.65;59.14;102097.09;5008629;28;20061;-61
2021/03/27 06:14:10;;;;;;;40.42;26.05;;;;;;;13.66;58.90;102094.44;5012244;28;20120;-59
2021/03/27 06:17:13;;;;;;;41.83;27.85;;;;;;;13.68;58.59;102104.91;5012496;28;20491;-60
2021/03/27 06:19:55;;;;;;;39.03;26.80;;;;;;;13.71;58.34;102110.88;5012476;28;20080;-60
2021/03/27 06:22:55;;;;;;;40.05;26.65;;;;;;;13.73;57.85;102112.59;5012318;28;20092;-59
2021/03/27 06:26:16;;;;;;;39.63;27.08;;;;;;;13.74;57.47;102109.88;5012539;28;20053;-60
2021/03/27 06:28:58;;;;;;;44.05;27.70;;;;;;;13.77;56.49;102114.16;4932201;29;20052;-60
2021/03/27 06:32:02;;;;;;;37.97;26.20;;;;;;;13.78;56.03;102119.34;4986874;28;20050;-60
2021/03/27 06:35:22;;;;;;;48.33;27.70;;;;;;;13.79;55.34;102128.97;4992270;28;20046;-59
2021/03/27 06:38:22;;;;;;;45.60;28.15;;;;;;;13.78;55.13;102127.25;4951527;28;20105;-61
2021/03/27 06:41:25;;;;;;;41.22;26.13;;;;;;;13.80;54.88;102125.41;4992352;28;20050;-60
2021/03/27 06:44:17;;;;;;;40.28;25.77;;;;;;;13.82;54.80;102126.19;4992352;28;20094;-60
2021/03/27 06:46:52;;;;;;;40.30;26.17;;;;;;;13.83;54.74;102125.25;5001702;28;20053;-61
2021/03/27 06:49:24;;;;;;;43.70;27.48;;;;;;;13.85;54.69;102126.06;5012287;28;20045;-65
2021/03/27 06:52:07;;;;;;;41.00;26.25;;;;;;;13.86;54.47;102133.03;5011892;28;20050;-59
2021/03/27 06:54:48;;;;;;;40.97;27.42;;;;;;;13.90;54.30;102130.25;5011451;28;20143;-60
2021/03/27 06:57:41;;;;;;;39.85;26.35;;;;;;;13.93;54.29;102135.34;5011802;28;20085;-61
2021/03/27 07:00:23;;;;;;;39.85;26.20;;;;;;;13.95;54.26;102130.88;5011720;28;20125;-60
2021/03/27 07:03:26;;;;;;;38.35;26.25;;;;;;;13.98;54.17;102128.94;5010577;28;20454;-60
2021/03/27 07:06:20;;;;;;;41.50;26.83;;;;;;;14.01;54.23;102127.94;5011294;28;20046;-61
2021/03/27 07:08:52;;;;;;;39.85;26.42;;;;;;;14.04;54.15;102131.28;5010061;28;20049;-59
2021/03/27 07:11:40;;;;;;;39.97;25.25;;;;;;;14.09;54.10;102136.31;5011699;28;20050;-59
2021/03/27 07:14:14;;;;;;;39.28;27.00;;;;;;;14.13;54.20;102137.91;5010644;28;20487;-59
2021/03/27 07:17:01;;;;;;;40.10;25.25;;;;;;;14.16;54.55;102137.75;5011254;28;20057;-59
2021/03/27 07:20:01;;;;;;;37.13;25.02;;;;;;;14.22;54.82;102139.22;5011383;28;20112;-60
2021/03/27 07:23:33;;;;;;;37.25;24.75;;;;;;;14.25;55.15;102143.50;5011102;28;20057;-60
2021/03/27 07:26:23;;;;;;;35.42;21.88;;;;;;;14.25;55.55;102135.59;4997144;28;20112;-61
2021/03/27 07:28:59;;;;;;;32.40;22.50;;;;;;;14.27;55.90;102139.84;5011170;28;20072;-59
2021/03/27 07:31:49;;;;;;;27.02;20.10;;;;;;;14.29;55.92;102127.41;5011148;28;20046;-60
2021/03/27 07:34:57;;;;;;;30.02;21.00;;;;;;;14.35;56.11;102137.66;5011237;28;20073;-59
2021/03/27 07:37:51;;;;;;;28.57;20.10;;;;;;;14.39;56.35;102129.63;5010884;28;20054;-60
2021/03/27 07:40:39;;;;;;;30.98;19.38;;;;;;;14.41;56.41;102138.28;5010933;28;20050;-60
2021/03/27 07:43:31;;;;;;;28.10;19.27;;;;;;;14.43;56.39;102139.09;5011050;28;20426;-60
2021/03/27 07:46:14;;;;;;;30.85;20.25;;;;;;;14.48;56.68;102137.91;5010437;28;20081;-61
2021/03/27 07:48:55;;;;;;;30.00;20.92;;;;;;;14.54;56.67;102142.88;5010587;28;20050;-61
2021/03/27 07:51:39;;;;;;;28.60;19.75;;;;;;;14.58;56.62;102146.22;5010713;28;20049;-67
2021/03/27 07:54:57;;;;;;;28.30;19.15;;;;;;;14.61;56.69;102150.50;5023268;28;20116;-68
2021/03/27 07:57:45;;;;;;;28.95;20.05;;;;;;;14.62;56.61;102153.06;4988706;28;20082;-66
2021/03/27 08:00:38;;;;;;;29.52;19.48;;;;;;;14.65;56.59;102154.72;4988249;28;20054;-66
2021/03/27 08:03:19;;;;;;;26.77;18.33;;;;;;;14.68;56.61;102158.06;4990495;28;20166;-67
2021/03/27 08:06:10;;;;;;;25.83;18.98;;;;;;;14.69;56.54;102164.22;4991176;28;20462;-69
2021/03/27 08:09:05;;;;;;;23.75;17.55;;;;;;;14.70;56.63;102160.63;4990702;28;20042;-66
2021/03/27 08:12:00;;;;;;;25.17;17.98;;;;;;;14.73;56.66;102167.53;4990636;28;20050;-64
2021/03/27 08:14:50;;;;;;;29.27;18.65;;;;;;;14.76;56.57;102173.50;5009732;28;20177;-66
2021/03/27 08:17:36;;;;;;;25.25;17.38;;;;;;;14.77;56.49;102167.31;5009866;28;20073;-70
2021/03/27 08:20:22;;;;;;;28.67;18.25;;;;;;;14.83;56.42;102172.28;5009800;28;20111;-67
2021/03/27 08:23:19;;;;;;;26.67;18.38;;;;;;;15.11;55.81;102176.13;5010345;28;20050;-67
2021/03/27 08:26:02;;;;;;;24.92;17.52;;;;;;;15.32;55.61;102175.91;5010142;28;20053;-66
2021/03/27 08:28:57;;;;;;;24.35;18.40;;;;;;;15.49;55.31;102165.25;5009157;28;20054;-66
2021/03/27 08:31:28;;;;;;;26.58;19.17;;;;;;;15.57;55.08;102169.28;5009906;28;20076;-66
2021/03/27 08:34:24;;;;;;;27.92;19.80;;;;;;;15.54;55.05;102175.59;5009961;28;20049;-59
2021/03/27 08:37:12;;;;;;;28.90;19.50;;;;;;;15.49;54.90;102173.19;5009983;28;20046;-65
2021/03/27 08:39:52;;;;;;;26.90;19.20;;;;;;;15.46;54.95;102178.63;5009801;28;20104;-64
2021/03/27 08:43:15;;;;;;;27.25;19.85;;;;;;;15.44;54.80;102177.03;5009788;28;20054;-64
2021/03/27 08:46:06;;;;;;;30.63;20.60;;;;;;;15.43;54.90;102185.91;4949076;29;20255;-63
2021/03/27 08:48:51;;;;;;;25.58;18.02;;;;;;;15.38;54.92;102180.88;4948837;29;20512;-63
2021/03/27 08:51:25;;;;;;;27.75;20.05;;;;;;;15.36;54.90;102190.66;4995412;28;20046;-62
2021/03/27 08:54:32;;;;;;;27.27;19.45;;;;;;;15.34;55.01;102193.41;4989915;28;20049;-63
2021/03/27 08:57:31;;;;;;;28.05;19.00;;;;;;;15.31;54.96;102196.22;5006530;28;20042;-63
2021/03/27 09:00:15;;;;;;;28.00;20.08;;;;;;;15.29;55.01;102197.25;4997419;28;20073;-64
2021/03/27 09:03:12;;;;;;;28.42;19.45;;;;;;;15.28;55.01;102203.47;5009382;28;20053;-64
2021/03/27 09:06:03;;;;;;;26.70;20.13;;;;;;;15.27;55.15;102202.59;5003438;28;20092;-63
2021/03/27 09:09:07;;;;;;;27.17;20.05;;;;;;;15.28;54.99;102206.94;5005645;28;20107;-69
2021/03/27 09:11:39;;;;;;;30.90;20.60;;;;;;;15.29;55.09;102199.88;5008119;28;20132;-65
2021/03/27 09:14:14;;;;;;;29.75;20.10;;;;;;;15.29;55.07;102210.47;5006412;28;20046;-63
2021/03/27 09:17:18;;;;;;;28.60;20.15;;;;;;;15.30;54.63;102209.50;5008428;28;20049;-67
2021/03/27 09:19:50;;;;;;;23.95;11.95;;;;;;;15.31;54.74;102205.94;5006075;28;20042;-64
2021/03/27 09:22:19;;;;;;;30.85;20.52;;;;;;;15.39;55.01;102203.75;5008441;28;20490;-68
2021/03/27 09:24:51;;;;;;;30.27;21.42;;;;;;;15.43;54.91;102196.50;5008877;28;20046;-70
2021/03/27 09:28:02;;;;;;;29.77;20.30;;;;;;;15.47;54.61;102192.75;5008822;28;20045;-69
2021/03/27 09:30:57;;;;;;;28.30;19.70;;;;;;;15.55;54.46;102193.16;5020418;28;20042;-65
2021/03/27 09:33:30;;;;;;;26.80;19.30;;;;;;;15.62;54.18;102191.06;5004191;28;20058;-65
2021/03/27 09:36:09;;;;;;;24.98;18.45;;;;;;;15.68;53.94;102188.09;5007468;28;20046;-66
2021/03/27 09:39:05;;;;;;;28.15;18.90;;;;;;;15.74;53.83;102186.88;5008122;28;20457;-65
2021/03/27 09:41:50;;;;;;;;;;;;;;;15.76;53.61;102187.66;5007416;28;20042;-66
2021/03/27 09:44:32;;;;;;;26.52;18.63;;;;;;;15.79;53.54;102185.66;5008027;28;19925;-65
2021/03/27 09:47:46;;;;;;;26.85;18.85;;;;;;;15.81;53.23;102182.94;5008299;28;20131;-65
2021/03/27 09:50:15;;;;;;;27.83;19.60;;;;;;;15.82;52.51;102192.59;5011452;28;20669;-65
2021/03/27 09:52:59;;;;;;;29.45;21.17;;;;;;;15.80;52.28;102187.38;5006832;28;20053;-67
2021/03/27 09:56:04;;;;;;;41.13;20.15;;;;;;;15.88;52.21;102194.06;5009781;28;20486;-69
2021/03/27 09:58:45;;;;;;;26.27;18.98;;;;;;;15.94;52.17;102199.88;5025851;28;20811;-70
2021/03/27 10:01:52;;;;;;;26.85;18.40;;;;;;;15.99;51.70;102196.97;5010299;28;20049;-72
2021/03/27 10:04:29;;;;;;;28.60;19.23;;;;;;;16.09;51.13;102182.28;5011834;28;20050;-67
2021/03/27 10:07:11;;;;;;;27.98;18.05;;;;;;;16.19;51.03;102187.91;5011372;28;20054;-70
2021/03/27 10:09:56;;;;;;;26.00;18.85;;;;;;;16.34;50.57;102194.13;5011393;28;20486;-66
2021/03/27 10:12:27;;;;;;;25.40;17.85;;;;;;;16.47;49.42;102189.81;5009312;28;20045;-65
2021/03/27 10:14:58;;;;;;;26.20;16.95;;;;;;;16.67;48.58;102182.47;5011901;28;20041;-64
2021/03/27 10:17:36;;;;;;;22.85;16.83;;;;;;;16.98;47.86;102184.16;5009485;28;20080;-73
2021/03/27 10:20:22;;;;;;;24.10;17.67;;;;;;;17.52;46.82;102179.13;5024729;28;20050;-65
2021/03/27 10:23:05;;;;;;;21.75;17.33;;;;;;;17.87;46.05;102174.22;5009787;28;20042;-65
2021/03/27 10:25:44;;;;;;;23.30;16.90;;;;;;;18.29;45.20;102184.81;5009927;28;20482;-64
2021/03/27 10:28:25;;;;;;;28.88;17.63;;;;;;;18.60;44.65;102186.25;5007328;28;20434;-65
2021/03/27 10:30:59;;;;;;;29.10;18.20;;;;;;;18.53;45.05;102192.94;5010093;28;20161;-66
2021/03/27 10:33:49;;;;;;;24.30;18.08;;;;;;;18.32;45.24;102183.75;5008860;28;20494;-66
2021/03/27 10:36:46;;;;;;;32.90;20.80;;;;;;;18.13;45.70;102189.44;5010033;28;20100;-65
2021/03/27 10:39:32;;;;;;;26.90;19.75;;;;;;;17.97;45.99;102184.25;5025373;28;20096;-65
2021/03/27 10:42:11;;;;;;;25.33;18.27;;;;;;;17.85;46.12;102185.88;5010700;28;20046;-66
2021/03/27 10:44:43;;;;;;;25.73;18.60;;;;;;;17.84;46.51;102178.88;5011301;28;20046;-65
2021/03/27 10:47:36;;;;;;;25.48;18.38;;;;;;;17.81;46.24;102173.75;5010950;28;20399;-62
2021/03/27 10:50:20;;;;;;;26.20;18.83;;;;;;;17.71;46.58;102176.16;5004563;28;20046;-65
2021/03/27 10:53:17;;;;;;;26.48;19.35;;;;;;;17.66;46.58;102176.47;5009211;28;20046;-70
2021/03/27 10:56:15;;;;;;;27.45;18.80;;;;;;;17.61;47.10;102174.09;5008303;28;20089;-65
2021/03/27 10:58:51;;;;;;;28.52;19.40;;;;;;;17.53;47.32;102181.66;5009058;28;20045;-63
2021/03/27 11:01:37;;;;;;;27.63;19.92;;;;;;;17.48;47.47;102170.50;5009639;28;20046;-64
2021/03/27 11:04:34;;;;;;;31.17;20.20;;;;;;;17.49;47.49;102177.50;5010131;28;20104;-65
2021/03/27 11:07:12;;;;;;;29.63;20.63;;;;;;;17.60;47.56;102176.84;5009331;28;20070;-64
2021/03/27 11:10:04;;;;;;;26.75;19.42;;;;;;;17.66;47.85;102178.25;5009961;28;20049;-65
2021/03/27 11:12:55;;;;;;;23.35;17.75;;;;;;;17.67;47.21;102177.31;5008375;28;20125;-68
2021/03/27 11:15:40;;;;;;;26.90;18.55;;;;;;;17.69;46.75;102170.94;5009743;28;20534;-69
2021/03/27 11:18:19;;;;;;;24.15;17.95;;;;;;;17.83;46.69;102171.88;5024999;28;20057;-70
2021/03/27 11:21:07;;;;;;;29.52;18.92;;;;;;;18.14;46.46;102169.88;5009947;28;20049;-74
2021/03/27 11:24:29;;;;;;;14.80;7.05;;;;;;;18.11;47.81;102170.94;5008986;28;20053;-72
2021/03/27 11:27:22;;;;;;;16.58;10.98;;;;;;;18.10;48.23;102172.72;4986780;28;20105;-64
2021/03/27 11:30:19;;;;;;;29.02;10.82;;;;;;;18.41;47.64;102173.38;4985985;28;20050;-67
2021/03/27 11:32:48;;;;;;;25.35;15.23;;;;;;;18.74;47.21;102171.16;5009945;28;20490;-67
2021/03/27 11:35:34;;;;;;;22.67;10.90;;;;;;;19.18;46.11;102171.72;5010233;28;20104;-68
2021/03/27 11:38:19;;;;;;;;;;;;;;;19.52;45.49;102167.50;5008920;28;20490;-66
2021/03/27 11:41:23;;;;;;;23.08;13.02;;;;;;;19.77;44.73;102156.88;5009866;28;20316;-66
2021/03/27 11:44:13;;;;;;;23.17;16.20;;;;;;;19.48;44.66;102165.19;5010314;28;20050;-70
2021/03/27 11:46:44;;;;;;;29.17;16.02;;;;;;;19.25;44.62;102159.69;5008883;28;20065;-71
2021/03/27 11:49:25;;;;;;;22.77;10.57;;;;;;;19.06;45.26;102162.81;5010395;28;20060;-70
2021/03/27 11:52:02;;;;;;;31.88;14.65;;;;;;;18.91;45.77;102157.59;5009457;28;20050;-75
2021/03/27 11:54:52;;;;;;;28.55;11.35;;;;;;;18.84;46.47;102150.09;5009728;28;20042;-66
2021/03/27 11:57:44;;;;;;;29.20;13.68;;;;;;;18.76;46.29;102156.81;5008865;28;20060;-69
2021/03/27 12:00:50;;;;;;;28.02;12.85;;;;;;;18.59;46.22;102151.81;5008997;28;20046;-68
2021/03/27 12:03:28;;;;;;;25.70;14.13;;;;;;;18.47;46.42;102157.97;5009105;28;20416;-67
2021/03/27 12:06:15;;;;;;;22.17;12.27;;;;;;;18.39;46.85;102159.31;5009037;28;20065;-66
2021/03/27 12:08:52;;;;;;;22.42;9.95;;;;;;;18.37;47.30;102153.28;5016430;28;20049;-62
2021/03/27 12:11:47;;;;;;;26.60;13.48;;;;;;;18.37;47.50;102150.63;5008735;28;20042;-67
2021/03/27 12:14:17;;;;;;;25.45;12.32;;;;;;;18.41;47.46;102146.78;5008904;28;20050;-64
2021/03/27 12:17:06;;;;;;;22.80;14.52;;;;;;;18.47;47.13;102142.00;5010003;28;20976;-73
2021/03/27 12:19:50;;;;;;;28.92;13.13;;;;;;;18.68;46.79;102145.84;4980035;28;20054;-62
2021/03/27 12:22:37;;;;;;;31.63;14.65;;;;;;;18.81;47.54;102137.03;4998426;28;20057;-64
2021/03/27 12:25:22;;;;;;;25.15;13.18;;;;;;;18.93;46.27;102137.06;5009335;28;20041;-65
2021/03/27 12:28:31;;;;;;;15.13;11.18;;;;;;;19.35;44.77;102126.13;5009017;28;20069;-70
2021/03/27 12:31:19;;;;;;;24.98;13.95;;;;;;;19.64;43.72;102128.50;5009349;28;20553;-60
2021/03/27 12:33:54;;;;;;;22.48;13.82;;;;;;;19.92;42.50;102122.97;5000829;28;20042;-65